createdAt,value
2018-10-21T00:00:34.307Z,70.43
2018-10-21T00:03:07.029Z,69.97
2018-10-21T00:05:39.363Z,70.17
2018-10-21T00:08:10.908Z,71.07
2018-10-21T00:10:46.092Z,68.07
2018-10-21T00:13:19.346Z,68.70
2018-10-21T00:15:51.145Z,67.43
2018-10-21T00:18:24.548Z,69.87
2018-10-21T00:20:58.273Z,67.87
2018-10-21T00:23:31.452Z,64.63
2018-10-21T00:26:04.337Z,68.73
2018-10-21T00:28:39.841Z,68.33
2018-10-21T00:31:20.946Z,64.67
2018-10-21T00:33:54.118Z,67.77
2018-10-21T00:36:31.336Z,65.57
2018-10-21T00:41:56.475Z,66.93
2018-10-21T00:44:41.059Z,65.20
2018-10-21T00:47:12.229Z,69.17
2018-10-21T00:49:45.872Z,66.27
2018-10-21T00:52:15.889Z,66.10
2018-10-21T00:54:47.089Z,69.43
2018-10-21T00:57:19.178Z,68.90
2018-10-21T00:59:53.711Z,70.90
2018-10-21T01:02:25.031Z,68.87
2018-10-21T01:04:57.389Z,69.97
2018-10-21T01:07:35.985Z,71.57
2018-10-21T01:10:10.349Z,66.70
2018-10-21T01:12:44.408Z,68.40
2018-10-21T01:15:19.212Z,67.70
2018-10-21T01:17:53.757Z,69.03
2018-10-21T01:20:30.675Z,73.17
2018-10-21T01:23:08.464Z,75.03
2018-10-21T01:25:47.111Z,74.60
2018-10-21T01:28:25.210Z,76.57
2018-10-21T01:31:01.124Z,71.20
2018-10-21T01:36:11.661Z,71.40
2018-10-21T01:38:51.556Z,72.17
2018-10-21T01:41:31.349Z,71.90
2018-10-21T01:44:10.415Z,72.50
2018-10-21T01:49:38.492Z,68.30
2018-10-21T01:55:12.688Z,72.53
2018-10-21T01:57:48.668Z,73.60
2018-10-21T02:06:18.916Z,75.90
2018-10-21T02:11:48.192Z,74.70
2018-10-21T02:17:14.788Z,70.93
2018-10-21T02:19:58.932Z,70.13
2018-10-21T02:22:48.924Z,70.37
2018-10-21T02:28:18.741Z,66.77
2018-10-21T02:52:57.572Z,68.37
2018-10-21T02:55:37.470Z,71.10
2018-10-21T02:58:21.652Z,70.77
2018-10-21T03:01:06.089Z,71.07
2018-10-21T03:06:37.102Z,66.43
2018-10-21T03:09:17.008Z,68.30
2018-10-21T03:11:51.348Z,68.70
2018-10-21T03:19:54.367Z,68.53
2018-10-21T03:22:39.427Z,72.00
2018-10-21T03:25:21.338Z,74.57
2018-10-21T03:27:58.007Z,74.83
2018-10-21T03:30:44.314Z,73.60
2018-10-21T03:33:26.196Z,71.30
2018-10-21T03:36:08.780Z,72.40
2018-10-21T03:41:46.562Z,70.80
2018-10-21T03:44:30.960Z,72.27
2018-10-21T03:47:17.088Z,69.70
2018-10-21T03:52:59.080Z,72.33
2018-10-21T03:55:49.788Z,69.77
2018-10-21T03:58:35.950Z,71.27
2018-10-21T04:01:19.498Z,65.93
2018-10-21T04:03:58.563Z,64.90
2018-10-21T04:06:32.836Z,63.90
2018-10-21T04:09:16.822Z,66.83
2018-10-21T04:11:56.649Z,67.37
2018-10-21T04:14:34.326Z,66.73
2018-10-21T04:19:57.502Z,63.60
2018-10-21T04:22:50.160Z,71.53
2018-10-21T04:25:39.608Z,68.50
2018-10-21T04:28:24.619Z,72.70
2018-10-21T04:31:10.518Z,69.87
2018-10-21T04:33:53.491Z,64.40
2018-10-21T04:36:36.910Z,67.43
2018-10-21T04:39:29.218Z,67.57
2018-10-21T04:42:09.788Z,65.40
2018-10-21T04:44:51.948Z,65.03
2018-10-21T04:47:27.680Z,66.57
2018-10-21T04:50:14.141Z,65.57
2018-10-21T04:52:52.308Z,72.00
2018-10-21T04:55:38.115Z,75.10
2018-10-21T04:58:26.996Z,70.60
2018-10-21T05:01:21.932Z,65.20
2018-10-21T05:04:06.575Z,64.70
2018-10-21T05:06:46.857Z,64.73
2018-10-21T05:09:29.352Z,63.80
2018-10-21T05:12:02.302Z,63.07
2018-10-21T05:14:37.822Z,60.73
2018-10-21T05:20:13.708Z,69.67
2018-10-21T05:28:37.174Z,68.50
2018-10-21T05:31:32.146Z,64.83
2018-10-21T05:34:24.394Z,66.87
2018-10-21T05:40:16.432Z,74.20
2018-10-21T05:43:20.596Z,73.97
2018-10-21T05:49:24.421Z,67.43
2018-10-21T05:55:27.894Z,65.60
2018-10-21T05:58:00.076Z,67.43
2018-10-21T06:00:30.833Z,67.30
2018-10-21T06:03:03.330Z,63.90
2018-10-21T06:05:42.394Z,64.17
2018-10-21T06:08:14.096Z,66.50
2018-10-21T06:10:46.911Z,63.60
2018-10-21T06:13:23.122Z,61.27
2018-10-21T06:15:54.796Z,61.37
2018-10-21T06:18:26.500Z,59.80
2018-10-21T06:20:59.645Z,60.60
2018-10-21T06:23:28.989Z,58.47
2018-10-21T06:25:58.293Z,59.97
2018-10-21T06:28:28.096Z,61.23
2018-10-21T06:30:58.140Z,60.00
2018-10-21T06:33:27.720Z,59.37
2018-10-21T06:36:02.799Z,61.50
2018-10-21T06:38:32.844Z,58.23
2018-10-21T06:41:02.681Z,60.70
2018-10-21T06:43:32.344Z,60.13
2018-10-21T06:46:01.896Z,56.77
2018-10-21T06:48:31.470Z,55.33
2018-10-21T06:51:01.416Z,55.60
2018-10-21T06:53:31.256Z,51.83
2018-10-21T06:56:00.852Z,52.80
2018-10-21T06:58:30.710Z,53.60
2018-10-21T07:01:00.918Z,52.67
2018-10-21T07:03:30.476Z,51.33
2018-10-21T07:06:21.088Z,51.93
2018-10-21T07:08:51.843Z,52.43
2018-10-21T07:11:21.429Z,52.80
2018-10-21T07:13:56.355Z,55.83
2018-10-21T07:16:26.235Z,52.10
2018-10-21T07:18:56.599Z,53.10
2018-10-21T07:21:26.691Z,52.27
2018-10-21T07:23:56.220Z,51.23
2018-10-21T07:26:25.550Z,54.00
2018-10-21T07:28:55.043Z,55.40
2018-10-21T07:31:24.395Z,53.70
2018-10-21T07:33:54.983Z,53.93
2018-10-21T07:36:24.808Z,56.10
2018-10-21T07:38:54.098Z,54.83
2018-10-21T07:41:26.033Z,55.07
2018-10-21T07:43:55.353Z,54.37
2018-10-21T07:46:24.631Z,54.43
2018-10-21T07:48:54.185Z,57.27
2018-10-21T07:51:23.459Z,54.03
2018-10-21T07:53:52.808Z,53.07
2018-10-21T07:56:23.083Z,53.60
2018-10-21T07:58:52.484Z,51.03
2018-10-21T08:01:21.971Z,56.90
2018-10-21T08:03:51.465Z,54.97
2018-10-21T08:06:34.252Z,54.00
2018-10-21T08:09:05.846Z,55.00
2018-10-21T08:11:35.113Z,56.40
2018-10-21T08:14:06.046Z,56.50
2018-10-21T08:16:35.613Z,58.03
2018-10-21T08:19:04.913Z,54.80
2018-10-21T08:21:34.276Z,55.93
2018-10-21T08:24:03.668Z,55.43
2018-10-21T08:26:33.076Z,54.10
2018-10-21T08:29:02.464Z,53.80
2018-10-21T08:31:32.641Z,56.90
2018-10-21T08:34:01.793Z,54.33
2018-10-21T08:36:30.923Z,53.43
2018-10-21T08:39:00.463Z,53.10
2018-10-21T08:41:29.934Z,53.90
2018-10-21T08:43:59.064Z,54.60
2018-10-21T08:46:28.578Z,54.20
2018-10-21T08:48:57.713Z,55.40
2018-10-21T08:51:26.842Z,54.70
2018-10-21T08:53:56.344Z,52.63
2018-10-21T08:56:25.454Z,54.17
2018-10-21T08:58:54.688Z,52.80
2018-10-21T09:01:23.992Z,55.53
2018-10-21T09:03:53.139Z,54.40
2018-10-21T09:06:22.251Z,57.13
2018-10-21T09:08:51.464Z,58.07
2018-10-21T09:11:20.772Z,55.37
2018-10-21T09:13:49.917Z,56.30
2018-10-21T09:16:19.397Z,55.33
2018-10-21T09:18:48.526Z,55.10
2018-10-21T09:21:17.670Z,55.17
2018-10-21T09:23:47.099Z,56.97
2018-10-21T09:26:16.977Z,58.50
2018-10-21T09:28:46.282Z,57.13
2018-10-21T09:31:15.880Z,56.87
2018-10-21T09:33:45.213Z,54.87
2018-10-21T09:36:14.633Z,60.80
2018-10-21T09:38:43.882Z,57.17
2018-10-21T09:41:12.954Z,56.03
2018-10-21T09:43:42.096Z,54.43
2018-10-21T09:46:11.485Z,55.97
2018-10-21T09:48:40.561Z,62.00
2018-10-21T09:51:09.743Z,58.20
2018-10-21T09:53:38.991Z,58.43
2018-10-21T09:56:08.109Z,59.57
2018-10-21T09:58:37.300Z,55.50
2018-10-21T10:01:11.831Z,56.57
2018-10-21T10:03:40.962Z,58.70
2018-10-21T10:06:10.045Z,57.57
2018-10-21T10:08:39.362Z,56.60
2018-10-21T10:11:08.472Z,54.53
2018-10-21T10:13:37.604Z,58.47
2018-10-21T10:16:07.217Z,57.40
2018-10-21T10:18:36.288Z,56.90
2018-10-21T10:21:05.837Z,60.87
2018-10-21T10:23:35.192Z,61.33
2018-10-21T10:26:05.872Z,60.00
2018-10-21T10:28:34.987Z,59.17
2018-10-21T10:31:04.266Z,59.57
2018-10-21T10:33:33.510Z,56.70
2018-10-21T10:36:03.034Z,56.07
2018-10-21T10:38:32.220Z,59.90
2018-10-21T10:41:02.635Z,56.10
2018-10-21T10:43:31.753Z,54.80
2018-10-21T10:46:01.138Z,55.57
2018-10-21T10:48:30.230Z,56.10
2018-10-21T10:50:59.334Z,57.07
2018-10-21T10:53:29.211Z,55.57
2018-10-21T10:55:58.396Z,52.97
2018-10-21T10:58:27.490Z,51.37
2018-10-21T11:00:56.941Z,51.10
2018-10-21T11:03:26.103Z,49.47
2018-10-21T11:05:55.252Z,51.90
2018-10-21T11:08:24.884Z,49.70
2018-10-21T11:10:53.980Z,49.10
2018-10-21T11:13:23.124Z,49.23
2018-10-21T11:15:52.441Z,50.00
2018-10-21T11:18:21.545Z,51.17
2018-10-21T11:20:50.655Z,51.00
2018-10-21T11:23:19.993Z,50.60
2018-10-21T11:25:49.114Z,51.33
2018-10-21T11:28:18.369Z,50.90
2018-10-21T11:30:47.691Z,52.63
2018-10-21T11:33:16.783Z,51.67
2018-10-21T11:35:45.950Z,51.47
2018-10-21T11:38:15.386Z,50.57
2018-10-21T11:40:44.469Z,49.87
2018-10-21T11:43:13.688Z,50.70
2018-10-21T11:45:43.200Z,42.43
2018-10-21T11:48:12.230Z,50.23
2018-10-21T11:50:41.718Z,49.97
2018-10-21T11:53:10.949Z,49.07
2018-10-21T11:55:41.606Z,50.70
2018-10-21T11:58:14.305Z,49.10
2018-10-21T12:00:44.662Z,47.90
2018-10-21T12:03:16.290Z,48.17
2018-10-21T12:05:45.548Z,49.30
2018-10-21T12:08:14.833Z,48.70
2018-10-21T12:10:44.443Z,50.50
2018-10-21T12:13:13.884Z,47.87
2018-10-21T12:15:43.138Z,45.97
2018-10-21T12:18:12.786Z,46.70
2018-10-21T12:20:42.051Z,45.83
2018-10-21T12:23:11.676Z,42.73
2018-10-21T12:25:41.079Z,45.70
2018-10-21T12:28:12.715Z,46.50
2018-10-21T12:30:42.047Z,47.80
2018-10-21T12:33:11.577Z,47.37
2018-10-21T12:35:40.804Z,46.63
2018-10-21T12:38:10.372Z,44.90
2018-10-21T12:40:56.062Z,44.83
2018-10-21T12:43:25.374Z,48.27
2018-10-21T12:45:54.582Z,44.73
2018-10-21T12:48:23.943Z,45.37
2018-10-21T12:50:53.677Z,44.27
2018-10-21T12:53:26.738Z,45.37
2018-10-21T12:55:56.156Z,42.13
2018-10-21T12:58:25.634Z,43.97
2018-10-21T13:01:07.776Z,42.77
2018-10-21T13:03:37.051Z,43.80
2018-10-21T13:06:06.300Z,43.17
2018-10-21T13:08:41.390Z,44.13
2018-10-21T13:11:10.640Z,42.13
2018-10-21T13:13:45.737Z,44.03
2018-10-21T13:16:15.118Z,45.57
2018-10-21T13:18:51.054Z,42.77
2018-10-21T13:21:20.259Z,42.30
2018-10-21T13:23:49.587Z,41.17
2018-10-21T13:26:19.008Z,38.73
2018-10-21T13:29:07.615Z,39.90
2018-10-21T13:31:37.441Z,38.40
2018-10-21T13:34:12.665Z,39.43
2018-10-21T13:36:42.014Z,39.70
2018-10-21T13:39:13.355Z,40.50
2018-10-21T13:41:44.287Z,39.17
2018-10-21T13:44:16.011Z,36.93
2018-10-21T13:46:45.450Z,37.43
2018-10-21T13:49:14.583Z,35.90
2018-10-21T13:51:43.818Z,33.67
2018-10-21T13:54:13.099Z,34.43
2018-10-21T13:56:42.191Z,33.83
2018-10-21T13:59:11.398Z,32.47
2018-10-21T14:01:40.936Z,34.10
2018-10-21T14:04:10.074Z,31.13
2018-10-21T14:06:39.196Z,30.33
2018-10-21T14:09:11.232Z,29.33
2018-10-21T14:11:40.346Z,26.70
2018-10-21T14:14:12.165Z,29.60
2018-10-21T14:16:41.667Z,30.13
2018-10-21T14:19:10.956Z,29.17
2018-10-21T14:21:40.342Z,29.10
2018-10-21T14:24:09.639Z,28.30
2018-10-21T14:26:38.725Z,24.97
2018-10-21T14:29:08.105Z,24.77
2018-10-21T14:31:37.209Z,25.30
2018-10-21T14:34:06.431Z,23.70
2018-10-21T14:36:35.878Z,23.63
2018-10-21T14:39:08.956Z,23.03
2018-10-21T14:41:38.437Z,22.13
2018-10-21T14:44:07.544Z,21.80
2018-10-21T14:46:38.003Z,22.97
2018-10-21T14:49:07.955Z,24.33
2018-10-21T14:51:37.064Z,21.73
2018-10-21T14:54:06.414Z,22.70
2018-10-21T14:56:35.711Z,21.33
2018-10-21T14:59:04.947Z,23.60
2018-10-21T15:01:34.079Z,21.80
2018-10-21T15:04:03.704Z,22.67
2018-10-21T15:06:32.819Z,21.33
2018-10-21T15:09:02.641Z,23.47
2018-10-21T15:11:32.053Z,23.20
2018-10-21T15:14:01.255Z,22.30
2018-10-21T15:16:30.522Z,22.80
2018-10-21T15:18:59.829Z,20.67
2018-10-21T15:21:28.904Z,22.70
2018-10-21T15:23:58.031Z,19.80
2018-10-21T15:26:27.302Z,18.63
2018-10-21T15:28:56.454Z,18.10
2018-10-21T15:31:25.799Z,17.83
2018-10-21T15:33:55.281Z,16.97
2018-10-21T15:36:24.440Z,18.60
2018-10-21T15:38:53.557Z,17.50
2018-10-21T15:41:22.888Z,17.70
2018-10-21T15:43:52.013Z,17.37
2018-10-21T15:46:21.282Z,17.20
2018-10-21T15:48:50.470Z,16.00
2018-10-21T15:51:19.551Z,14.93
2018-10-21T15:53:48.746Z,16.20
2018-10-21T15:56:18.074Z,15.30
2018-10-21T15:58:47.183Z,15.40
2018-10-21T16:01:16.326Z,14.17
2018-10-21T16:03:45.866Z,15.60
2018-10-21T16:06:15.055Z,15.30
2018-10-21T16:08:44.147Z,15.30
2018-10-21T16:11:13.517Z,15.60
2018-10-21T16:13:42.837Z,14.20
2018-10-21T16:16:11.972Z,13.60
2018-10-21T16:18:41.427Z,13.20
2018-10-21T16:21:10.516Z,13.60
2018-10-21T16:23:39.633Z,13.23
2018-10-21T16:26:09.079Z,13.20
2018-10-21T16:28:38.109Z,13.03
2018-10-21T16:31:07.239Z,13.50
2018-10-21T16:33:36.748Z,13.17
2018-10-21T16:36:05.918Z,13.80
2018-10-21T16:38:35.036Z,14.37
2018-10-21T16:41:04.643Z,14.60
2018-10-21T16:43:33.756Z,16.10
2018-10-21T16:46:03.295Z,14.93
2018-10-21T16:48:32.917Z,15.30
2018-10-21T16:51:02.547Z,16.67
2018-10-21T16:53:31.635Z,14.40
2018-10-21T16:56:01.163Z,13.53
2018-10-21T16:58:30.330Z,15.63
2018-10-21T17:00:59.654Z,15.10
2018-10-21T17:03:28.870Z,16.00
2018-10-21T17:05:57.993Z,15.07
2018-10-21T17:08:27.130Z,15.60
2018-10-21T17:10:56.459Z,15.17
2018-10-21T17:13:25.471Z,17.60
2018-10-21T17:15:54.600Z,17.17
2018-10-21T17:18:23.824Z,16.03
2018-10-21T17:20:52.992Z,17.50
2018-10-21T17:23:22.133Z,17.47
2018-10-21T17:25:51.601Z,15.70
2018-10-21T17:28:20.812Z,16.70
2018-10-21T17:30:49.971Z,18.00
2018-10-21T17:33:19.339Z,19.03
2018-10-21T17:35:48.595Z,17.47
2018-10-21T17:38:17.883Z,18.23
2018-10-21T17:40:47.353Z,17.67
2018-10-21T17:43:16.630Z,18.20
2018-10-21T17:45:54.395Z,17.70
2018-10-21T17:48:23.681Z,17.80
2018-10-21T17:50:53.311Z,17.20
2018-10-21T17:53:22.760Z,17.30
2018-10-21T17:55:57.929Z,16.90
2018-10-21T17:58:42.330Z,17.93
2018-10-21T18:01:11.754Z,18.27
2018-10-21T18:03:41.031Z,16.87
2018-10-21T18:06:10.503Z,17.73
2018-10-21T18:08:57.645Z,16.00
2018-10-21T18:11:27.052Z,16.53
2018-10-21T18:13:56.366Z,17.03
2018-10-21T18:16:25.579Z,16.20
2018-10-21T18:18:56.517Z,14.60
2018-10-21T18:21:25.757Z,15.63
2018-10-21T18:23:55.250Z,16.40
2018-10-21T18:26:24.801Z,17.07
2018-10-21T18:29:02.413Z,17.20
2018-10-21T18:31:35.839Z,15.77
2018-10-21T18:34:06.445Z,16.50
2018-10-21T18:36:35.745Z,15.50
2018-10-21T18:39:08.127Z,16.23
2018-10-21T18:41:37.427Z,18.33
2018-10-21T18:44:07.927Z,17.40
2018-10-21T18:46:37.672Z,15.70
2018-10-21T18:49:11.159Z,18.90
2018-10-21T18:51:40.550Z,17.60
2018-10-21T18:54:11.261Z,15.73
2018-10-21T18:56:40.666Z,15.43
2018-10-21T18:59:10.248Z,14.87
2018-10-21T19:01:39.527Z,14.00
2018-10-21T19:04:18.879Z,15.43
2018-10-21T19:06:48.059Z,14.50
2018-10-21T19:09:21.426Z,14.83
2018-10-21T19:11:50.715Z,13.30
2018-10-21T19:14:20.404Z,14.30
2018-10-21T19:16:50.168Z,12.60
2018-10-21T19:19:20.749Z,12.40
2018-10-21T19:21:51.587Z,13.10
2018-10-21T19:24:20.889Z,12.43
2018-10-21T19:26:50.395Z,12.37
2018-10-21T19:29:19.905Z,12.37
2018-10-21T19:31:53.075Z,11.37
2018-10-21T19:34:22.969Z,11.40
2018-10-21T19:36:54.097Z,11.30
2018-10-21T19:39:23.451Z,12.47
2018-10-21T19:41:53.769Z,11.00
2018-10-21T19:44:23.169Z,11.20
2018-10-21T19:46:52.543Z,10.87
2018-10-21T19:49:22.223Z,10.37
2018-10-21T19:51:53.185Z,10.40
2018-10-21T19:54:22.473Z,9.83
2018-10-21T19:56:52.011Z,10.03
2018-10-21T19:59:22.513Z,11.43
2018-10-21T20:01:54.105Z,9.40
2018-10-21T20:04:23.580Z,9.60
2018-10-21T20:06:55.256Z,9.33
2018-10-21T20:09:24.908Z,10.77
2018-10-21T20:11:56.211Z,10.60
2018-10-21T20:14:25.831Z,9.50
2018-10-21T20:16:55.733Z,10.47
2018-10-21T20:19:25.705Z,10.07
2018-10-21T20:21:54.941Z,8.80
2018-10-21T20:24:26.827Z,9.33
2018-10-21T20:26:56.127Z,9.40
2018-10-21T20:29:25.657Z,9.87
2018-10-21T20:31:55.278Z,10.23
2018-10-21T20:34:26.988Z,10.67
2018-10-21T20:36:56.513Z,9.50
2018-10-21T20:39:26.021Z,8.77
2018-10-21T20:41:55.344Z,9.00
2018-10-21T20:44:24.930Z,9.50
2018-10-21T20:46:54.463Z,9.23
2018-10-21T20:49:23.758Z,9.60
2018-10-21T20:51:53.215Z,9.37
2018-10-21T20:54:22.555Z,9.20
2018-10-21T20:56:51.869Z,8.27
2018-10-21T20:59:21.311Z,8.60
2018-10-21T21:01:50.908Z,9.27
2018-10-21T21:04:20.139Z,8.50
2018-10-21T21:06:49.562Z,8.30
2018-10-21T21:09:20.945Z,8.10
2018-10-21T21:11:50.375Z,8.27
2018-10-21T21:14:24.515Z,8.60
2018-10-21T21:16:53.897Z,9.97
2018-10-21T21:19:23.646Z,8.00
2018-10-21T21:21:53.011Z,8.80
2018-10-21T21:24:22.929Z,8.30
2018-10-21T21:26:52.171Z,8.07
2018-10-21T21:29:21.397Z,7.43
2018-10-21T21:31:50.823Z,8.17
2018-10-21T21:34:20.069Z,7.20
2018-10-21T21:36:49.301Z,8.10
2018-10-21T21:39:18.872Z,7.33
2018-10-21T21:41:55.153Z,6.90
2018-10-21T21:44:24.525Z,8.40
2018-10-21T21:46:53.898Z,7.03
2018-10-21T21:49:29.396Z,7.10
2018-10-21T21:51:58.633Z,7.57
2018-10-21T21:54:27.989Z,6.97
2018-10-21T21:56:57.403Z,6.67
2018-10-21T21:59:32.705Z,8.20
2018-10-21T22:02:02.149Z,7.60
2018-10-21T22:04:38.311Z,7.70
2018-10-21T22:07:07.918Z,7.30
2018-10-21T22:09:37.186Z,7.57
2018-10-21T22:12:12.863Z,8.83
2018-10-21T22:14:42.029Z,7.23
2018-10-21T22:17:19.388Z,8.77
2018-10-21T22:19:48.797Z,8.20
2018-10-21T22:22:18.112Z,8.80
2018-10-21T22:24:47.496Z,7.50
2018-10-21T22:27:16.787Z,7.90
2018-10-21T22:29:49.310Z,7.63
2018-10-21T22:32:18.561Z,8.67
2018-10-21T22:34:47.809Z,8.57
2018-10-21T22:37:17.451Z,8.27
2018-10-21T22:39:46.659Z,7.93
2018-10-21T22:42:16.060Z,7.37
2018-10-21T22:44:45.470Z,7.87
2018-10-21T22:47:21.351Z,7.13
2018-10-21T22:49:50.809Z,7.40
2018-10-21T22:52:20.262Z,7.80
2018-10-21T22:54:49.619Z,6.73
2018-10-21T22:57:20.091Z,6.37
2018-10-21T22:59:50.245Z,7.60
2018-10-21T23:02:19.540Z,7.07
2018-10-21T23:04:49.164Z,6.60
2018-10-21T23:07:18.667Z,7.60
2018-10-21T23:09:47.941Z,7.17
2018-10-21T23:12:17.877Z,6.63
2018-10-21T23:14:47.065Z,7.60
2018-10-21T23:17:16.302Z,7.00
2018-10-21T23:19:46.944Z,6.67
2018-10-21T23:22:16.378Z,6.93
2018-10-21T23:24:49.999Z,6.73
2018-10-21T23:27:19.242Z,6.70
2018-10-21T23:29:48.652Z,6.90
2018-10-21T23:32:18.049Z,6.67
2018-10-21T23:34:47.502Z,7.00
2018-10-21T23:37:16.919Z,5.80
2018-10-21T23:39:46.404Z,6.70
2018-10-21T23:42:15.714Z,7.00
2018-10-21T23:44:45.171Z,6.73
2018-10-21T23:47:14.854Z,6.53
2018-10-21T23:49:44.421Z,6.00
2018-10-21T23:52:13.786Z,6.17
2018-10-21T23:54:43.228Z,7.03
2018-10-21T23:57:12.484Z,6.37
2018-10-21T23:59:41.930Z,6.60
